createdAt,value
2019-03-25T00:01:05.958Z,9.92
2019-03-25T00:03:38.754Z,9.91
2019-03-25T00:06:11.918Z,9.89
2019-03-25T00:08:44.758Z,9.88
2019-03-25T00:11:17.795Z,9.88
2019-03-25T00:13:50.679Z,9.87
2019-03-25T00:16:23.389Z,9.82
2019-03-25T00:18:56.274Z,9.85
2019-03-25T00:21:29.035Z,9.80
2019-03-25T00:24:02.209Z,9.78
2019-03-25T00:26:34.955Z,9.75
2019-03-25T00:29:07.821Z,9.72
2019-03-25T00:31:41.378Z,9.68
2019-03-25T00:34:14.169Z,9.67
2019-03-25T00:36:46.951Z,9.66
2019-03-25T00:39:19.683Z,9.63
2019-03-25T00:41:52.524Z,9.64
2019-03-25T00:44:25.335Z,9.65
2019-03-25T00:46:58.171Z,9.55
2019-03-25T00:49:31.047Z,9.49
2019-03-25T00:52:03.800Z,9.51
2019-03-25T00:54:36.580Z,9.43
2019-03-25T00:57:09.577Z,9.37
2019-03-25T00:59:42.355Z,9.39
2019-03-25T01:02:15.142Z,9.40
2019-03-25T01:04:47.979Z,9.38
2019-03-25T01:07:21.161Z,9.36
2019-03-25T01:09:53.903Z,9.34
2019-03-25T01:12:26.749Z,9.32
2019-03-25T01:14:59.511Z,9.30
2019-03-25T01:17:32.263Z,9.22
2019-03-25T01:20:05.268Z,9.26
2019-03-25T01:22:38.321Z,9.28
2019-03-25T01:25:12.907Z,9.28
2019-03-25T01:27:47.460Z,9.27
2019-03-25T01:30:20.413Z,9.27
2019-03-25T01:32:54.193Z,9.25
2019-03-25T01:35:26.957Z,9.23
2019-03-25T01:37:59.719Z,9.24
2019-03-25T01:40:32.619Z,9.22
2019-03-25T01:43:05.520Z,9.21
2019-03-25T01:45:38.294Z,9.20
2019-03-25T01:48:11.088Z,9.18
2019-03-25T01:50:43.857Z,9.17
2019-03-25T01:53:16.647Z,9.15
2019-03-25T01:55:49.890Z,9.13
2019-03-25T01:58:22.733Z,9.09
2019-03-25T02:00:55.524Z,9.02
2019-03-25T02:03:29.467Z,8.98
2019-03-25T02:06:02.201Z,8.96
2019-03-25T02:08:35.093Z,8.89
2019-03-25T02:11:09.435Z,8.83
2019-03-25T02:13:42.245Z,8.81
2019-03-25T02:16:15.124Z,8.81
2019-03-25T02:18:47.993Z,8.75
2019-03-25T02:21:21.025Z,8.73
2019-03-25T02:23:53.809Z,8.75
2019-03-25T02:26:26.713Z,8.70
2019-03-25T02:28:59.534Z,8.65
2019-03-25T02:31:32.310Z,8.60
2019-03-25T02:34:05.046Z,8.52
2019-03-25T02:36:37.867Z,8.52
2019-03-25T02:39:11.113Z,8.53
2019-03-25T02:41:43.950Z,8.58
2019-03-25T02:44:16.762Z,8.53
2019-03-25T02:46:49.673Z,8.51
2019-03-25T02:49:22.516Z,8.51
2019-03-25T02:51:55.529Z,8.49
2019-03-25T02:54:28.359Z,8.49
2019-03-25T02:57:01.521Z,8.47
2019-03-25T02:59:34.302Z,8.44
2019-03-25T03:02:07.049Z,8.49
2019-03-25T03:04:39.912Z,8.41
2019-03-25T03:07:12.638Z,8.38
2019-03-25T03:09:45.579Z,8.34
2019-03-25T03:12:18.355Z,8.35
2019-03-25T03:14:51.104Z,8.45
2019-03-25T03:17:24.074Z,8.50
2019-03-25T03:19:56.964Z,8.57
2019-03-25T03:22:29.857Z,8.62
2019-03-25T03:25:04.073Z,8.67
2019-03-25T03:27:36.856Z,8.72
2019-03-25T03:30:10.272Z,8.78
2019-03-25T03:32:43.243Z,8.81
2019-03-25T03:35:16.194Z,8.84
2019-03-25T03:37:50.137Z,8.87
2019-03-25T03:40:22.957Z,8.90
2019-03-25T03:42:55.698Z,8.92
2019-03-25T03:45:28.612Z,8.91
2019-03-25T03:48:02.970Z,8.89
2019-03-25T03:50:37.249Z,8.89
2019-03-25T03:53:10.384Z,8.89
2019-03-25T03:55:43.263Z,8.88
2019-03-25T03:58:16.010Z,8.89
2019-03-25T04:00:48.835Z,8.89
2019-03-25T04:03:22.111Z,8.88
2019-03-25T04:05:55.061Z,8.85
2019-03-25T04:08:27.811Z,8.84
2019-03-25T04:11:01.681Z,8.85
2019-03-25T04:13:34.423Z,8.82
2019-03-25T04:16:07.182Z,8.80
2019-03-25T04:18:42.159Z,8.79
2019-03-25T04:21:15.006Z,8.77
2019-03-25T04:23:48.877Z,8.75
2019-03-25T04:26:28.562Z,8.74
2019-03-25T04:28:57.562Z,8.75
2019-03-25T04:31:30.393Z,8.73
2019-03-25T04:34:03.361Z,8.72
2019-03-25T04:36:36.124Z,8.77
2019-03-25T04:39:09.932Z,8.69
2019-03-25T04:41:42.735Z,8.62
2019-03-25T04:44:15.472Z,8.64
2019-03-25T04:46:48.460Z,8.47
2019-03-25T04:49:21.766Z,8.41
2019-03-25T04:51:54.645Z,8.40
2019-03-25T04:54:27.395Z,8.33
2019-03-25T04:57:00.311Z,8.23
2019-03-25T04:59:33.131Z,8.28
2019-03-25T05:02:05.952Z,8.24
2019-03-25T05:04:38.720Z,8.17
2019-03-25T05:07:11.552Z,8.14
2019-03-25T05:09:44.365Z,8.10
2019-03-25T05:12:17.164Z,8.12
2019-03-25T05:14:49.921Z,8.08
2019-03-25T05:17:22.664Z,8.04
2019-03-25T05:19:56.541Z,8.08
2019-03-25T05:22:29.417Z,8.17
2019-03-25T05:25:02.269Z,8.16
2019-03-25T05:27:34.996Z,8.11
2019-03-25T05:30:09.748Z,8.10
2019-03-25T05:32:42.559Z,8.11
2019-03-25T05:35:15.404Z,8.10
2019-03-25T05:37:48.285Z,8.00
2019-03-25T05:40:21.677Z,7.93
2019-03-25T05:42:54.580Z,7.83
2019-03-25T05:45:27.507Z,7.79
2019-03-25T05:48:00.270Z,7.74
2019-03-25T05:50:33.181Z,7.81
2019-03-25T05:53:06.075Z,7.96
2019-03-25T05:55:40.905Z,8.13
2019-03-25T05:58:13.907Z,8.19
2019-03-25T06:00:46.925Z,8.18
2019-03-25T06:03:19.662Z,8.35
2019-03-25T06:05:52.430Z,8.48
2019-03-25T06:08:25.227Z,8.73
2019-03-25T06:10:58.352Z,9.07
2019-03-25T06:13:31.143Z,9.22
2019-03-25T06:16:04.097Z,9.30
2019-03-25T06:18:36.942Z,9.47
2019-03-25T06:21:09.742Z,9.70
2019-03-25T06:23:42.519Z,10.08
2019-03-25T06:26:15.298Z,10.83
2019-03-25T06:28:48.064Z,11.77
2019-03-25T06:31:20.910Z,13.52
2019-03-25T06:33:53.705Z,15.06
2019-03-25T06:36:26.531Z,15.29
2019-03-25T06:38:59.354Z,17.99
2019-03-25T06:41:32.211Z,19.43
2019-03-25T06:44:05.395Z,18.70
2019-03-25T06:46:38.215Z,19.05
2019-03-25T06:49:11.381Z,20.63
2019-03-25T06:51:45.284Z,20.55
2019-03-25T06:54:18.359Z,21.76
2019-03-25T06:56:51.497Z,22.24
2019-03-25T06:59:24.470Z,22.96
2019-03-25T07:01:57.311Z,27.05
2019-03-25T07:04:30.102Z,30.39
2019-03-25T07:07:02.884Z,28.83
2019-03-25T07:09:35.712Z,31.68
2019-03-25T07:12:08.469Z,33.64
2019-03-25T07:14:41.787Z,35.43
2019-03-25T07:17:14.568Z,31.34
2019-03-25T07:19:47.575Z,31.23
2019-03-25T07:22:20.367Z,32.09
2019-03-25T07:24:53.219Z,35.32
2019-03-25T07:27:36.280Z,36.99
2019-03-25T07:30:00.795Z,39.18
2019-03-25T07:32:34.695Z,40.72
2019-03-25T07:35:08.472Z,36.58
2019-03-25T07:37:41.530Z,39.25
2019-03-25T07:40:14.423Z,40.72
2019-03-25T07:42:47.248Z,42.98
2019-03-25T07:45:20.152Z,39.30
2019-03-25T07:47:52.971Z,34.41
2019-03-25T07:50:25.852Z,36.46
2019-03-25T07:52:58.691Z,41.28
2019-03-25T07:55:31.867Z,40.90
2019-03-25T07:58:04.706Z,43.04
2019-03-25T08:00:37.519Z,44.71
2019-03-25T08:03:11.511Z,43.10
2019-03-25T08:05:44.360Z,41.07
2019-03-25T08:08:17.234Z,43.11
2019-03-25T08:10:51.086Z,43.81
2019-03-25T08:13:24.023Z,46.02
2019-03-25T08:15:57.035Z,45.61
2019-03-25T08:18:29.818Z,43.16
2019-03-25T08:36:20.578Z,23.65
2019-03-25T08:38:53.498Z,22.71
2019-03-25T08:41:26.402Z,21.29
2019-03-25T08:45:10.109Z,20.46
2019-03-25T08:47:43.411Z,19.55
2019-03-25T08:50:16.701Z,19.50
2019-03-25T08:52:49.523Z,19.70
2019-03-25T08:55:22.423Z,21.22
2019-03-25T08:57:55.564Z,21.93
2019-03-25T09:00:28.339Z,22.48
2019-03-25T09:03:02.105Z,27.09
2019-03-25T09:05:34.903Z,35.89
2019-03-25T09:08:07.872Z,40.62
2019-03-25T09:10:41.026Z,42.72
2019-03-25T09:13:13.892Z,39.07
2019-03-25T09:15:46.876Z,40.48
2019-03-25T09:18:19.669Z,38.47
2019-03-25T09:20:52.459Z,39.32
2019-03-25T09:23:25.320Z,40.32
2019-03-25T09:25:58.097Z,36.26
2019-03-25T09:28:31.234Z,32.94
2019-03-25T09:31:14.784Z,30.27
2019-03-25T09:33:48.380Z,28.62
2019-03-25T09:36:23.112Z,28.09
2019-03-25T09:38:55.947Z,27.22
2019-03-25T09:41:28.728Z,27.85
2019-03-25T09:44:01.823Z,31.25
2019-03-25T09:46:34.565Z,31.96
2019-03-25T09:49:07.357Z,30.92
2019-03-25T09:51:40.120Z,30.61
2019-03-25T09:54:13.030Z,29.75
2019-03-25T09:56:45.819Z,30.53
2019-03-25T09:59:18.730Z,33.89
2019-03-25T10:01:51.957Z,31.63
2019-03-25T10:04:24.805Z,29.44
2019-03-25T10:06:57.609Z,28.39
2019-03-25T10:09:30.524Z,27.39
2019-03-25T10:12:03.359Z,26.35
2019-03-25T10:14:36.113Z,25.51
2019-03-25T10:17:09.039Z,24.33
2019-03-25T10:19:42.019Z,23.63
2019-03-25T10:22:14.835Z,23.86
2019-03-25T10:24:47.628Z,25.69
2019-03-25T10:27:20.429Z,28.97
2019-03-25T10:29:54.323Z,27.02
2019-03-25T10:32:27.127Z,26.33
2019-03-25T10:35:00.113Z,24.71
2019-03-25T10:37:33.269Z,23.26
2019-03-25T10:40:06.559Z,27.30
2019-03-25T10:42:39.378Z,25.43
2019-03-25T10:45:12.800Z,23.87
2019-03-25T10:47:45.607Z,22.78
2019-03-25T10:50:18.804Z,23.75
2019-03-25T10:52:51.919Z,25.74
2019-03-25T10:55:24.829Z,24.35
2019-03-25T10:57:57.711Z,23.34
2019-03-25T11:00:31.179Z,21.81
2019-03-25T11:03:04.154Z,20.30
2019-03-25T11:05:37.099Z,18.92
2019-03-25T11:08:09.990Z,17.78
2019-03-25T11:10:42.896Z,16.81
2019-03-25T11:13:15.850Z,15.90
2019-03-25T11:15:48.616Z,15.21
2019-03-25T11:18:21.394Z,14.45
2019-03-25T11:20:54.249Z,13.18
2019-03-25T11:23:27.242Z,11.90
2019-03-25T11:26:00.130Z,10.92
2019-03-25T11:28:32.959Z,10.10
2019-03-25T11:31:06.822Z,9.68
2019-03-25T11:33:40.552Z,9.62
2019-03-25T11:36:13.558Z,9.89
2019-03-25T11:38:46.356Z,10.60
2019-03-25T11:41:19.178Z,14.11
2019-03-25T11:43:51.969Z,18.77
2019-03-25T11:46:24.836Z,21.05
2019-03-25T11:48:57.688Z,24.05
2019-03-25T11:51:30.476Z,23.35
2019-03-25T11:54:07.365Z,21.99
2019-03-25T11:56:40.187Z,20.51
2019-03-25T11:59:18.648Z,18.84
2019-03-25T12:01:47.808Z,16.56
2019-03-25T12:04:20.707Z,14.62
2019-03-25T12:06:53.489Z,13.12
2019-03-25T12:09:26.382Z,12.63
2019-03-25T12:11:59.290Z,13.63
2019-03-25T12:14:32.219Z,13.84
2019-03-25T12:17:05.300Z,13.46
2019-03-25T12:19:38.175Z,13.27
2019-03-25T12:22:12.897Z,12.96
2019-03-25T12:24:45.877Z,12.57
2019-03-25T12:27:18.720Z,12.15
2019-03-25T12:29:51.549Z,11.21
2019-03-25T12:32:24.442Z,10.42
2019-03-25T12:34:57.523Z,9.98
2019-03-25T12:37:30.826Z,9.65
2019-03-25T12:40:03.563Z,9.84
2019-03-25T12:42:36.378Z,10.42
2019-03-25T12:45:09.927Z,11.07
2019-03-25T12:47:42.749Z,11.38
2019-03-25T12:50:15.948Z,11.17
2019-03-25T12:52:48.796Z,11.09
2019-03-25T12:55:21.657Z,10.92
2019-03-25T12:57:54.486Z,10.75
2019-03-25T13:00:55.431Z,11.19
2019-03-25T13:03:28.229Z,12.15
2019-03-25T13:06:01.378Z,12.88
2019-03-25T13:08:34.159Z,13.54
2019-03-25T13:11:06.955Z,13.91
2019-03-25T13:13:39.862Z,14.14
2019-03-25T13:16:12.730Z,14.15
2019-03-25T13:18:45.558Z,14.27
2019-03-25T13:21:18.347Z,14.46
2019-03-25T13:23:51.137Z,14.63
2019-03-25T13:26:23.934Z,14.63
2019-03-25T13:29:01.972Z,14.79
2019-03-25T13:31:31.192Z,14.88
2019-03-25T13:34:03.999Z,14.96
2019-03-25T13:36:36.808Z,14.89
2019-03-25T13:39:09.742Z,14.70
2019-03-25T13:41:42.533Z,14.58
2019-03-25T13:44:15.317Z,14.38
2019-03-25T13:46:48.112Z,14.23
2019-03-25T13:49:21.408Z,14.08
2019-03-25T13:51:54.233Z,13.84
2019-03-25T13:54:27.142Z,13.45
2019-03-25T13:57:00.090Z,13.11
2019-03-25T13:59:32.881Z,13.11
2019-03-25T14:02:05.707Z,12.94
2019-03-25T14:04:38.568Z,12.81
2019-03-25T14:07:11.844Z,12.73
2019-03-25T14:09:44.671Z,12.58
2019-03-25T14:12:17.546Z,12.44
2019-03-25T14:14:50.363Z,12.06
2019-03-25T14:17:23.273Z,11.98
2019-03-25T14:19:56.067Z,12.14
2019-03-25T14:22:30.119Z,12.27
2019-03-25T14:25:04.485Z,12.33
2019-03-25T14:27:37.249Z,12.63
2019-03-25T14:30:14.794Z,12.95
2019-03-25T14:32:45.656Z,12.63
2019-03-25T14:35:18.532Z,12.68
2019-03-25T14:37:51.617Z,12.62
2019-03-25T14:40:25.576Z,12.50
2019-03-25T14:42:58.657Z,12.17
2019-03-25T14:45:31.935Z,11.92
2019-03-25T14:48:06.368Z,11.57
2019-03-25T14:50:39.323Z,11.25
2019-03-25T14:53:12.199Z,11.33
2019-03-25T14:55:45.031Z,11.49
2019-03-25T14:58:17.847Z,11.41
2019-03-25T15:00:51.002Z,11.21
2019-03-25T15:03:23.811Z,10.97
2019-03-25T15:05:57.536Z,10.64
2019-03-25T15:08:30.353Z,10.34
2019-03-25T15:11:03.247Z,10.33
2019-03-25T15:13:36.145Z,10.48
2019-03-25T15:16:08.909Z,10.65
2019-03-25T15:18:41.989Z,10.69
2019-03-25T15:21:14.766Z,10.44
2019-03-25T15:23:47.765Z,10.18
2019-03-25T15:26:20.520Z,9.94
2019-03-25T15:28:53.315Z,9.38
2019-03-25T15:31:26.097Z,9.13
2019-03-25T15:33:58.855Z,8.88
2019-03-25T15:36:32.045Z,8.64
2019-03-25T15:39:06.234Z,8.47
2019-03-25T15:41:39.035Z,8.26
2019-03-25T15:44:12.075Z,7.99
2019-03-25T15:46:55.091Z,7.68
2019-03-25T15:49:19.387Z,7.56
2019-03-25T15:51:52.311Z,7.50
2019-03-25T15:54:25.132Z,7.51
2019-03-25T15:56:58.027Z,7.59
2019-03-25T15:59:31.334Z,7.65
2019-03-25T16:02:04.152Z,7.70
2019-03-25T16:04:37.057Z,7.70
2019-03-25T16:07:10.125Z,7.71
2019-03-25T16:09:42.926Z,7.66
2019-03-25T16:12:15.772Z,7.45
2019-03-25T16:14:48.544Z,7.32
2019-03-25T16:17:21.830Z,7.20
2019-03-25T16:19:54.634Z,7.10
2019-03-25T16:22:27.492Z,7.23
2019-03-25T16:25:00.453Z,7.44
2019-03-25T16:27:33.420Z,7.49
2019-03-25T16:30:07.421Z,7.37
2019-03-25T16:32:40.262Z,7.33
2019-03-25T16:35:13.142Z,7.11
2019-03-25T16:37:46.205Z,6.91
2019-03-25T16:40:19.045Z,6.85
2019-03-25T16:42:52.047Z,6.80
2019-03-25T16:45:24.822Z,6.69
2019-03-25T16:47:57.684Z,6.67
2019-03-25T16:50:30.551Z,6.62
2019-03-25T16:53:06.483Z,6.55
2019-03-25T16:55:39.375Z,6.49
2019-03-25T16:58:12.209Z,6.35
2019-03-25T17:00:46.650Z,6.23
2019-03-25T17:03:21.259Z,6.08
2019-03-25T17:05:55.241Z,5.91
2019-03-25T17:08:28.158Z,5.74
2019-03-25T17:11:00.986Z,5.74
2019-03-25T17:13:33.861Z,5.72
2019-03-25T17:16:06.706Z,5.77
2019-03-25T17:18:39.574Z,5.70
2019-03-25T17:21:14.446Z,5.69
2019-03-25T17:23:47.445Z,5.63
2019-03-25T17:26:21.838Z,5.59
2019-03-25T17:28:54.835Z,5.63
2019-03-25T17:31:27.945Z,5.79
2019-03-25T17:34:01.929Z,5.89
2019-03-25T17:36:35.053Z,5.95
2019-03-25T17:39:10.874Z,5.88
2019-03-25T17:41:43.691Z,5.88
2019-03-25T17:44:16.557Z,5.83
2019-03-25T17:46:49.333Z,5.76
2019-03-25T17:49:22.089Z,5.79
2019-03-25T17:51:54.884Z,5.85
2019-03-25T17:54:27.738Z,5.87
2019-03-25T17:57:01.100Z,5.87
2019-03-25T17:59:33.903Z,5.84
2019-03-25T18:02:06.891Z,5.93
2019-03-25T18:04:39.878Z,5.92
2019-03-25T18:07:12.695Z,5.98
2019-03-25T18:09:45.480Z,6.03
2019-03-25T18:12:18.272Z,6.02
2019-03-25T18:14:51.420Z,5.99
2019-03-25T18:17:24.211Z,5.92
2019-03-25T18:19:56.944Z,5.87
2019-03-25T18:22:39.153Z,5.86
2019-03-25T18:25:04.192Z,5.78
2019-03-25T18:27:37.131Z,5.76
2019-03-25T18:30:11.288Z,5.77
2019-03-25T18:32:44.108Z,5.73
2019-03-25T18:35:24.319Z,5.63
2019-03-25T18:37:57.120Z,5.50
2019-03-25T18:40:29.876Z,5.42
2019-03-25T18:43:02.786Z,5.36
2019-03-25T18:45:35.543Z,5.28
2019-03-25T18:48:08.340Z,5.25
2019-03-25T18:50:41.407Z,5.22
2019-03-25T18:53:14.258Z,5.09
2019-03-25T18:55:47.203Z,4.94
2019-03-25T18:58:20.033Z,4.84
2019-03-25T19:00:52.970Z,4.75
2019-03-25T19:03:25.797Z,4.62
2019-03-25T19:05:58.627Z,4.48
2019-03-25T19:08:33.308Z,4.42
2019-03-25T19:11:06.214Z,4.41
2019-03-25T19:13:38.954Z,4.45
2019-03-25T19:16:12.011Z,4.48
2019-03-25T19:18:44.854Z,4.58
2019-03-25T19:21:17.989Z,4.65
2019-03-25T19:23:50.978Z,4.56
2019-03-25T19:26:23.895Z,4.49
2019-03-25T19:28:56.944Z,4.46
2019-03-25T19:31:29.718Z,4.36
2019-03-25T19:34:02.629Z,4.33
2019-03-25T19:36:35.435Z,4.30
2019-03-25T19:39:09.963Z,4.34
2019-03-25T19:41:42.824Z,4.41
2019-03-25T19:44:15.633Z,4.45
2019-03-25T19:46:48.417Z,4.56
2019-03-25T19:49:21.920Z,4.61
2019-03-25T19:51:54.802Z,4.75
2019-03-25T19:54:27.612Z,4.79
2019-03-25T19:57:00.511Z,4.81
2019-03-25T19:59:33.421Z,4.87
2019-03-25T20:02:18.441Z,4.91
2019-03-25T20:04:42.316Z,4.95
2019-03-25T20:07:15.130Z,4.98
2019-03-25T20:09:48.003Z,5.06
2019-03-25T20:12:21.204Z,5.12
2019-03-25T20:14:54.088Z,5.18
2019-03-25T20:17:27.086Z,5.25
2019-03-25T20:20:00.036Z,5.29
2019-03-25T20:22:32.914Z,5.29
2019-03-25T20:25:06.346Z,5.26
2019-03-25T20:27:39.267Z,5.25
2019-03-25T20:30:13.146Z,5.20
2019-03-25T20:32:46.106Z,5.14
2019-03-25T20:35:18.866Z,5.08
2019-03-25T20:37:52.025Z,4.98
2019-03-25T20:40:24.915Z,4.94
2019-03-25T20:42:57.740Z,4.85
2019-03-25T20:45:31.267Z,4.74
2019-03-25T20:48:04.167Z,4.63
2019-03-25T20:50:37.072Z,4.54
2019-03-25T20:53:10.077Z,4.47
2019-03-25T20:55:43.087Z,4.37
2019-03-25T20:58:15.967Z,4.26
2019-03-25T21:00:51.207Z,4.25
2019-03-25T21:03:24.273Z,4.17
2019-03-25T21:05:57.193Z,4.23
2019-03-25T21:08:30.025Z,4.30
2019-03-25T21:11:03.110Z,4.31
2019-03-25T21:13:36.099Z,4.32
2019-03-25T21:16:08.987Z,4.39
2019-03-25T21:18:41.886Z,4.41
2019-03-25T21:21:14.787Z,4.48
2019-03-25T21:23:47.827Z,4.51
2019-03-25T21:26:21.277Z,4.56
2019-03-25T21:28:54.286Z,4.63
2019-03-25T21:31:27.133Z,4.62
2019-03-25T21:33:59.919Z,4.65
2019-03-25T21:36:32.903Z,4.61
2019-03-25T21:39:07.692Z,4.53
2019-03-25T21:41:41.177Z,4.44
2019-03-25T21:44:14.460Z,4.28
2019-03-25T21:46:47.512Z,4.09
2019-03-25T21:49:20.607Z,3.94
2019-03-25T21:51:53.565Z,3.80
2019-03-25T21:54:26.426Z,3.80
2019-03-25T21:56:59.358Z,3.84
2019-03-25T21:59:32.186Z,3.88
2019-03-25T22:02:05.049Z,3.96
2019-03-25T22:04:37.866Z,4.05
2019-03-25T22:07:11.390Z,4.16
2019-03-25T22:09:44.312Z,4.12
2019-03-25T22:12:17.103Z,4.03
2019-03-25T22:14:49.979Z,4.03
2019-03-25T22:17:22.810Z,4.01
2019-03-25T22:19:55.727Z,3.99
2019-03-25T22:22:28.566Z,4.08
2019-03-25T22:25:01.736Z,4.15
2019-03-25T22:27:34.567Z,4.27
2019-03-25T22:30:07.682Z,4.28
2019-03-25T22:32:41.197Z,4.30
2019-03-25T22:35:14.329Z,4.26
2019-03-25T22:37:47.311Z,4.34
2019-03-25T22:40:20.310Z,4.40
2019-03-25T22:42:53.081Z,4.31
2019-03-25T22:45:32.949Z,4.34
2019-03-25T22:48:07.311Z,4.37
2019-03-25T22:50:40.762Z,4.48
2019-03-25T22:53:13.647Z,4.46
2019-03-25T22:55:46.457Z,4.43
2019-03-25T22:58:19.211Z,4.45
2019-03-25T23:00:52.135Z,4.51
2019-03-25T23:03:38.261Z,4.53
2019-03-25T23:06:00.274Z,4.56
2019-03-25T23:08:33.186Z,4.54
2019-03-25T23:11:06.244Z,4.52
2019-03-25T23:13:39.106Z,4.59
2019-03-25T23:16:12.102Z,4.63
2019-03-25T23:18:44.997Z,4.58
2019-03-25T23:21:17.839Z,4.56
2019-03-25T23:23:51.091Z,4.49
2019-03-25T23:26:23.968Z,4.44
2019-03-25T23:28:56.844Z,4.50
2019-03-25T23:31:29.797Z,4.49
2019-03-25T23:34:02.738Z,4.53
2019-03-25T23:36:35.708Z,4.54
2019-03-25T23:39:09.515Z,4.59
2019-03-25T23:41:42.434Z,4.65
2019-03-25T23:44:15.228Z,4.68
2019-03-25T23:46:48.115Z,4.64
2019-03-25T23:49:21.650Z,4.62
2019-03-25T23:51:54.466Z,4.66
2019-03-25T23:54:27.275Z,4.69
2019-03-25T23:57:01.667Z,4.73
2019-03-25T23:59:34.506Z,4.71
